sensor_id;sensor_type;location;lat;lon;timestamp;P1;P2;P0
79537;PMS5003;68989;52.032;5.152;2024-01-10T00:01:28;9;6;
79537;PMS5003;68989;52.032;5.152;2024-01-10T00:03:56;10;10;
79537;PMS5003;68989;52.032;5.152;2024-01-10T00:06:23;9;9;
79537;PMS5003;68989;52.032;5.152;2024-01-10T00:08:50;8;8;
79537;PMS5003;68989;52.032;5.152;2024-01-10T00:11:17;8;8;
79537;PMS5003;68989;52.032;5.152;2024-01-10T00:13:44;11;9;
79537;PMS5003;68989;52.032;5.152;2024-01-10T00:16:11;9;9;
79537;PMS5003;68989;52.032;5.152;2024-01-10T00:18:39;11;8;
79537;PMS5003;68989;52.032;5.152;2024-01-10T00:21:06;12;12;
79537;PMS5003;68989;52.032;5.152;2024-01-10T00:23:34;9;9;
79537;PMS5003;68989;52.032;5.152;2024-01-10T00:26:01;9;9;
79537;PMS5003;68989;52.032;5.152;2024-01-10T00:28:28;11;8;
79537;PMS5003;68989;52.032;5.152;2024-01-10T00:30:55;16;12;
79537;PMS5003;68989;52.032;5.152;2024-01-10T00:33:22;11;8;
79537;PMS5003;68989;52.032;5.152;2024-01-10T00:35:49;10;10;
79537;PMS5003;68989;52.032;5.152;2024-01-10T00:38:16;11;9;
79537;PMS5003;68989;52.032;5.152;2024-01-10T00:40:44;12;9;
79537;PMS5003;68989;52.032;5.152;2024-01-10T00:43:11;11;8;
79537;PMS5003;68989;52.032;5.152;2024-01-10T00:45:38;11;9;
79537;PMS5003;68989;52.032;5.152;2024-01-10T00:48:05;16;9;
79537;PMS5003;68989;52.032;5.152;2024-01-10T00:50:32;13;9;
79537;PMS5003;68989;52.032;5.152;2024-01-10T00:53:00;11;11;
79537;PMS5003;68989;52.032;5.152;2024-01-10T00:55:26;11;11;
79537;PMS5003;68989;52.032;5.152;2024-01-10T00:57:54;9;9;
79537;PMS5003;68989;52.032;5.152;2024-01-10T01:00:21;6;6;
79537;PMS5003;68989;52.032;5.152;2024-01-10T01:02:48;11;8;
79537;PMS5003;68989;52.032;5.152;2024-01-10T01:05:15;12;11;
79537;PMS5003;68989;52.032;5.152;2024-01-10T01:07:42;13;13;
79537;PMS5003;68989;52.032;5.152;2024-01-10T01:10:09;11;11;
79537;PMS5003;68989;52.032;5.152;2024-01-10T01:12:36;9;9;
79537;PMS5003;68989;52.032;5.152;2024-01-10T01:15:04;11;11;
79537;PMS5003;68989;52.032;5.152;2024-01-10T01:17:31;12;9;
79537;PMS5003;68989;52.032;5.152;2024-01-10T01:19:58;12;12;
79537;PMS5003;68989;52.032;5.152;2024-01-10T01:22:25;8;8;
79537;PMS5003;68989;52.032;5.152;2024-01-10T01:24:53;11;11;
79537;PMS5003;68989;52.032;5.152;2024-01-10T01:27:20;16;13;
79537;PMS5003;68989;52.032;5.152;2024-01-10T01:29:47;15;13;
79537;PMS5003;68989;52.032;5.152;2024-01-10T01:32:14;9;9;
79537;PMS5003;68989;52.032;5.152;2024-01-10T01:34:41;12;9;
79537;PMS5003;68989;52.032;5.152;2024-01-10T01:37:08;13;12;
79537;PMS5003;68989;52.032;5.152;2024-01-10T01:39:35;11;11;
79537;PMS5003;68989;52.032;5.152;2024-01-10T01:42:03;12;12;
79537;PMS5003;68989;52.032;5.152;2024-01-10T01:44:30;13;9;
79537;PMS5003;68989;52.032;5.152;2024-01-10T01:46:57;8;8;
79537;PMS5003;68989;52.032;5.152;2024-01-10T01:49:24;11;11;
79537;PMS5003;68989;52.032;5.152;2024-01-10T01:51:51;15;11;
79537;PMS5003;68989;52.032;5.152;2024-01-10T01:54:18;9;9;
79537;PMS5003;68989;52.032;5.152;2024-01-10T01:56:46;11;9;
79537;PMS5003;68989;52.032;5.152;2024-01-10T01:59:13;17;11;
79537;PMS5003;68989;52.032;5.152;2024-01-10T02:02:37;13;13;
79537;PMS5003;68989;52.032;5.152;2024-01-10T02:02:58;12;12;
79537;PMS5003;68989;52.032;5.152;2024-01-10T02:05:26;11;8;
79537;PMS5003;68989;52.032;5.152;2024-01-10T02:07:53;9;9;
79537;PMS5003;68989;52.032;5.152;2024-01-10T02:10:20;11;11;
79537;PMS5003;68989;52.032;5.152;2024-01-10T02:12:47;13;11;
79537;PMS5003;68989;52.032;5.152;2024-01-10T02:15:14;12;9;
79537;PMS5003;68989;52.032;5.152;2024-01-10T02:17:42;11;9;
79537;PMS5003;68989;52.032;5.152;2024-01-10T02:20:09;12;12;
79537;PMS5003;68989;52.032;5.152;2024-01-10T02:22:36;11;11;
79537;PMS5003;68989;52.032;5.152;2024-01-10T02:25:04;9;9;
79537;PMS5003;68989;52.032;5.152;2024-01-10T02:27:31;16;13;
79537;PMS5003;68989;52.032;5.152;2024-01-10T02:29:59;12;12;
79537;PMS5003;68989;52.032;5.152;2024-01-10T02:32:29;15;11;
79537;PMS5003;68989;52.032;5.152;2024-01-10T02:34:56;10;10;
79537;PMS5003;68989;52.032;5.152;2024-01-10T02:37:23;12;9;
79537;PMS5003;68989;52.032;5.152;2024-01-10T02:39:50;15;11;
79537;PMS5003;68989;52.032;5.152;2024-01-10T02:42:17;11;11;
79537;PMS5003;68989;52.032;5.152;2024-01-10T02:44:44;9;9;
79537;PMS5003;68989;52.032;5.152;2024-01-10T02:47:12;13;12;
79537;PMS5003;68989;52.032;5.152;2024-01-10T02:49:39;12;11;
79537;PMS5003;68989;52.032;5.152;2024-01-10T02:52:06;12;9;
79537;PMS5003;68989;52.032;5.152;2024-01-10T02:54:33;13;12;
79537;PMS5003;68989;52.032;5.152;2024-01-10T02:57:00;9;9;
79537;PMS5003;68989;52.032;5.152;2024-01-10T02:59:27;16;15;
79537;PMS5003;68989;52.032;5.152;2024-01-10T03:01:55;13;13;
79537;PMS5003;68989;52.032;5.152;2024-01-10T03:04:22;12;12;
79537;PMS5003;68989;52.032;5.152;2024-01-10T03:06:49;13;13;
79537;PMS5003;68989;52.032;5.152;2024-01-10T03:09:17;15;12;
79537;PMS5003;68989;52.032;5.152;2024-01-10T03:11:44;18;13;
79537;PMS5003;68989;52.032;5.152;2024-01-10T03:14:11;12;12;
79537;PMS5003;68989;52.032;5.152;2024-01-10T03:16:37;16;13;
79537;PMS5003;68989;52.032;5.152;2024-01-10T03:19:05;13;13;
79537;PMS5003;68989;52.032;5.152;2024-01-10T03:21:32;11;9;
79537;PMS5003;68989;52.032;5.152;2024-01-10T03:23:59;16;12;
79537;PMS5003;68989;52.032;5.152;2024-01-10T03:26:27;9;9;
79537;PMS5003;68989;52.032;5.152;2024-01-10T03:28:55;20;15;
79537;PMS5003;68989;52.032;5.152;2024-01-10T03:31:22;16;12;
79537;PMS5003;68989;52.032;5.152;2024-01-10T03:33:50;13;13;
79537;PMS5003;68989;52.032;5.152;2024-01-10T03:36:17;13;13;
79537;PMS5003;68989;52.032;5.152;2024-01-10T03:38:44;15;12;
79537;PMS5003;68989;52.032;5.152;2024-01-10T03:41:12;12;12;
79537;PMS5003;68989;52.032;5.152;2024-01-10T03:43:40;15;13;
79537;PMS5003;68989;52.032;5.152;2024-01-10T03:46:08;13;12;
79537;PMS5003;68989;52.032;5.152;2024-01-10T03:48:36;13;12;
79537;PMS5003;68989;52.032;5.152;2024-01-10T03:51:03;12;12;
79537;PMS5003;68989;52.032;5.152;2024-01-10T03:53:30;15;15;
79537;PMS5003;68989;52.032;5.152;2024-01-10T03:55:57;15;12;
79537;PMS5003;68989;52.032;5.152;2024-01-10T03:58:24;15;12;
79537;PMS5003;68989;52.032;5.152;2024-01-10T04:00:51;11;11;
79537;PMS5003;68989;52.032;5.152;2024-01-10T04:03:18;13;11;
79537;PMS5003;68989;52.032;5.152;2024-01-10T04:05:45;13;12;
79537;PMS5003;68989;52.032;5.152;2024-01-10T04:08:13;13;13;
79537;PMS5003;68989;52.032;5.152;2024-01-10T04:10:40;19;15;
79537;PMS5003;68989;52.032;5.152;2024-01-10T04:13:07;18;16;
79537;PMS5003;68989;52.032;5.152;2024-01-10T04:15:34;13;12;
79537;PMS5003;68989;52.032;5.152;2024-01-10T04:18:01;12;12;
79537;PMS5003;68989;52.032;5.152;2024-01-10T04:20:28;19;15;
79537;PMS5003;68989;52.032;5.152;2024-01-10T04:22:55;11;11;
79537;PMS5003;68989;52.032;5.152;2024-01-10T04:25:23;18;16;
79537;PMS5003;68989;52.032;5.152;2024-01-10T04:27:49;11;9;
79537;PMS5003;68989;52.032;5.152;2024-01-10T04:30:16;13;11;
79537;PMS5003;68989;52.032;5.152;2024-01-10T04:32:43;18;13;
79537;PMS5003;68989;52.032;5.152;2024-01-10T04:35:10;16;11;
79537;PMS5003;68989;52.032;5.152;2024-01-10T04:37:38;18;15;
79537;PMS5003;68989;52.032;5.152;2024-01-10T04:40:05;13;13;
79537;PMS5003;68989;52.032;5.152;2024-01-10T04:42:33;12;12;
79537;PMS5003;68989;52.032;5.152;2024-01-10T04:45:01;12;9;
79537;PMS5003;68989;52.032;5.152;2024-01-10T04:47:27;12;12;
79537;PMS5003;68989;52.032;5.152;2024-01-10T04:49:55;19;12;
79537;PMS5003;68989;52.032;5.152;2024-01-10T04:52:22;15;13;
79537;PMS5003;68989;52.032;5.152;2024-01-10T04:54:49;15;12;
79537;PMS5003;68989;52.032;5.152;2024-01-10T04:57:16;16;13;
79537;PMS5003;68989;52.032;5.152;2024-01-10T04:59:43;16;13;
79537;PMS5003;68989;52.032;5.152;2024-01-10T05:02:11;18;16;
79537;PMS5003;68989;52.032;5.152;2024-01-10T05:04:43;15;15;
79537;PMS5003;68989;52.032;5.152;2024-01-10T05:07:10;16;13;
79537;PMS5003;68989;52.032;5.152;2024-01-10T05:09:37;13;13;
79537;PMS5003;68989;52.032;5.152;2024-01-10T05:12:04;16;15;
79537;PMS5003;68989;52.032;5.152;2024-01-10T05:14:32;12;12;
79537;PMS5003;68989;52.032;5.152;2024-01-10T05:16:59;16;13;
79537;PMS5003;68989;52.032;5.152;2024-01-10T05:19:26;12;12;
79537;PMS5003;68989;52.032;5.152;2024-01-10T05:21:53;13;13;
79537;PMS5003;68989;52.032;5.152;2024-01-10T05:24:20;12;11;
79537;PMS5003;68989;52.032;5.152;2024-01-10T05:26:47;13;13;
79537;PMS5003;68989;52.032;5.152;2024-01-10T05:29:14;18;15;
79537;PMS5003;68989;52.032;5.152;2024-01-10T05:31:41;15;13;
79537;PMS5003;68989;52.032;5.152;2024-01-10T05:34:08;16;15;
79537;PMS5003;68989;52.032;5.152;2024-01-10T05:36:35;13;13;
79537;PMS5003;68989;52.032;5.152;2024-01-10T05:39:02;18;15;
79537;PMS5003;68989;52.032;5.152;2024-01-10T05:41:29;18;16;
79537;PMS5003;68989;52.032;5.152;2024-01-10T05:43:57;16;15;
79537;PMS5003;68989;52.032;5.152;2024-01-10T05:46:24;16;15;
79537;PMS5003;68989;52.032;5.152;2024-01-10T05:48:51;15;14;
79537;PMS5003;68989;52.032;5.152;2024-01-10T05:51:18;16;13;
79537;PMS5003;68989;52.032;5.152;2024-01-10T05:53:44;18;14;
79537;PMS5003;68989;52.032;5.152;2024-01-10T05:56:12;18;16;
79537;PMS5003;68989;52.032;5.152;2024-01-10T05:58:39;16;14;
79537;PMS5003;68989;52.032;5.152;2024-01-10T06:01:06;15;15;
79537;PMS5003;68989;52.032;5.152;2024-01-10T06:03:33;18;15;
79537;PMS5003;68989;52.032;5.152;2024-01-10T06:06:00;21;18;
79537;PMS5003;68989;52.032;5.152;2024-01-10T06:08:28;18;15;
79537;PMS5003;68989;52.032;5.152;2024-01-10T06:10:55;18;16;
79537;PMS5003;68989;52.032;5.152;2024-01-10T06:13:22;18;16;
79537;PMS5003;68989;52.032;5.152;2024-01-10T06:15:50;14;12;
79537;PMS5003;68989;52.032;5.152;2024-01-10T06:18:17;12;12;
79537;PMS5003;68989;52.032;5.152;2024-01-10T06:20:44;18;18;
79537;PMS5003;68989;52.032;5.152;2024-01-10T06:23:11;16;15;
79537;PMS5003;68989;52.032;5.152;2024-01-10T06:25:38;18;13;
79537;PMS5003;68989;52.032;5.152;2024-01-10T06:28:05;16;16;
79537;PMS5003;68989;52.032;5.152;2024-01-10T06:30:32;16;15;
79537;PMS5003;68989;52.032;5.152;2024-01-10T06:32:59;19;16;
79537;PMS5003;68989;52.032;5.152;2024-01-10T06:35:27;18;18;
79537;PMS5003;68989;52.032;5.152;2024-01-10T06:37:54;18;14;
79537;PMS5003;68989;52.032;5.152;2024-01-10T06:40:21;18;18;
79537;PMS5003;68989;52.032;5.152;2024-01-10T06:42:48;16;15;
79537;PMS5003;68989;52.032;5.152;2024-01-10T06:45:15;19;15;
79537;PMS5003;68989;52.032;5.152;2024-01-10T06:47:43;19;18;
79537;PMS5003;68989;52.032;5.152;2024-01-10T06:50:10;18;14;
79537;PMS5003;68989;52.032;5.152;2024-01-10T06:52:37;19;19;
79537;PMS5003;68989;52.032;5.152;2024-01-10T06:55:05;15;14;
79537;PMS5003;68989;52.032;5.152;2024-01-10T06:57:33;18;15;
79537;PMS5003;68989;52.032;5.152;2024-01-10T07:00:00;15;15;
79537;PMS5003;68989;52.032;5.152;2024-01-10T07:02:27;19;16;
79537;PMS5003;68989;52.032;5.152;2024-01-10T07:04:54;15;15;
79537;PMS5003;68989;52.032;5.152;2024-01-10T07:07:21;21;16;
79537;PMS5003;68989;52.032;5.152;2024-01-10T07:09:49;19;15;
79537;PMS5003;68989;52.032;5.152;2024-01-10T07:12:16;22;19;
79537;PMS5003;68989;52.032;5.152;2024-01-10T07:14:43;21;18;
79537;PMS5003;68989;52.032;5.152;2024-01-10T07:17:10;21;16;
79537;PMS5003;68989;52.032;5.152;2024-01-10T07:19:37;15;15;
79537;PMS5003;68989;52.032;5.152;2024-01-10T07:22:04;21;16;
79537;PMS5003;68989;52.032;5.152;2024-01-10T07:24:31;16;15;
79537;PMS5003;68989;52.032;5.152;2024-01-10T07:26:58;21;12;
79537;PMS5003;68989;52.032;5.152;2024-01-10T07:29:25;18;16;
79537;PMS5003;68989;52.032;5.152;2024-01-10T07:31:52;21;15;
79537;PMS5003;68989;52.032;5.152;2024-01-10T07:34:19;18;14;
79537;PMS5003;68989;52.032;5.152;2024-01-10T07:36:46;23;21;
79537;PMS5003;68989;52.032;5.152;2024-01-10T07:39:14;19;16;
79537;PMS5003;68989;52.032;5.152;2024-01-10T07:41:41;22;19;
79537;PMS5003;68989;52.032;5.152;2024-01-10T07:44:09;28;22;
79537;PMS5003;68989;52.032;5.152;2024-01-10T07:46:36;19;16;
79537;PMS5003;68989;52.032;5.152;2024-01-10T07:49:03;22;22;
79537;PMS5003;68989;52.032;5.152;2024-01-10T07:51:29;29;23;
79537;PMS5003;68989;52.032;5.152;2024-01-10T07:53:57;18;16;
79537;PMS5003;68989;52.032;5.152;2024-01-10T07:56:23;18;18;
79537;PMS5003;68989;52.032;5.152;2024-01-10T07:58:51;16;15;
79537;PMS5003;68989;52.032;5.152;2024-01-10T08:01:18;16;16;
79537;PMS5003;68989;52.032;5.152;2024-01-10T08:03:45;23;16;
79537;PMS5003;68989;52.032;5.152;2024-01-10T08:06:12;19;19;
79537;PMS5003;68989;52.032;5.152;2024-01-10T08:08:39;25;18;
79537;PMS5003;68989;52.032;5.152;2024-01-10T08:11:07;21;19;
79537;PMS5003;68989;52.032;5.152;2024-01-10T08:13:34;19;16;
79537;PMS5003;68989;52.032;5.152;2024-01-10T08:16:01;18;18;
79537;PMS5003;68989;52.032;5.152;2024-01-10T08:18:28;25;21;
79537;PMS5003;68989;52.032;5.152;2024-01-10T08:20:55;21;16;
79537;PMS5003;68989;52.032;5.152;2024-01-10T08:23:22;21;16;
79537;PMS5003;68989;52.032;5.152;2024-01-10T08:25:49;18;18;
79537;PMS5003;68989;52.032;5.152;2024-01-10T08:28:16;28;23;
79537;PMS5003;68989;52.032;5.152;2024-01-10T08:30:43;22;18;
79537;PMS5003;68989;52.032;5.152;2024-01-10T08:33:10;19;18;
79537;PMS5003;68989;52.032;5.152;2024-01-10T08:35:37;16;16;
79537;PMS5003;68989;52.032;5.152;2024-01-10T08:38:04;25;21;
79537;PMS5003;68989;52.032;5.152;2024-01-10T08:40:31;19;16;
79537;PMS5003;68989;52.032;5.152;2024-01-10T08:42:58;19;16;
79537;PMS5003;68989;52.032;5.152;2024-01-10T08:45:26;22;16;
79537;PMS5003;68989;52.032;5.152;2024-01-10T08:47:53;18;18;
79537;PMS5003;68989;52.032;5.152;2024-01-10T08:50:20;26;22;
79537;PMS5003;68989;52.032;5.152;2024-01-10T08:52:47;25;18;
79537;PMS5003;68989;52.032;5.152;2024-01-10T08:55:14;25;21;
79537;PMS5003;68989;52.032;5.152;2024-01-10T08:57:41;23;18;
79537;PMS5003;68989;52.032;5.152;2024-01-10T09:00:09;22;22;
79537;PMS5003;68989;52.032;5.152;2024-01-10T09:02:37;23;19;
79537;PMS5003;68989;52.032;5.152;2024-01-10T09:05:04;23;21;
79537;PMS5003;68989;52.032;5.152;2024-01-10T09:07:32;18;15;
79537;PMS5003;68989;52.032;5.152;2024-01-10T09:09:59;22;19;
79537;PMS5003;68989;52.032;5.152;2024-01-10T09:12:27;21;16;
79537;PMS5003;68989;52.032;5.152;2024-01-10T09:14:54;25;23;
79537;PMS5003;68989;52.032;5.152;2024-01-10T09:17:21;29;27;
79537;PMS5003;68989;52.032;5.152;2024-01-10T09:19:48;24;21;
79537;PMS5003;68989;52.032;5.152;2024-01-10T09:22:15;16;16;
79537;PMS5003;68989;52.032;5.152;2024-01-10T09:24:42;23;16;
79537;PMS5003;68989;52.032;5.152;2024-01-10T09:27:09;24;21;
79537;PMS5003;68989;52.032;5.152;2024-01-10T09:29:37;22;22;
79537;PMS5003;68989;52.032;5.152;2024-01-10T09:32:05;26;22;
79537;PMS5003;68989;52.032;5.152;2024-01-10T09:34:32;18;18;
79537;PMS5003;68989;52.032;5.152;2024-01-10T09:37:05;19;19;
79537;PMS5003;68989;52.032;5.152;2024-01-10T09:39:32;20;20;
79537;PMS5003;68989;52.032;5.152;2024-01-10T09:41:59;22;20;
79537;PMS5003;68989;52.032;5.152;2024-01-10T09:44:27;23;23;
79537;PMS5003;68989;52.032;5.152;2024-01-10T09:46:55;23;20;
79537;PMS5003;68989;52.032;5.152;2024-01-10T09:49:22;16;16;
79537;PMS5003;68989;52.032;5.152;2024-01-10T09:51:49;29;23;
79537;PMS5003;68989;52.032;5.152;2024-01-10T09:54:17;15;15;
79537;PMS5003;68989;52.032;5.152;2024-01-10T09:56:45;25;20;
79537;PMS5003;68989;52.032;5.152;2024-01-10T09:59:13;26;20;
79537;PMS5003;68989;52.032;5.152;2024-01-10T10:01:40;20;19;
79537;PMS5003;68989;52.032;5.152;2024-01-10T10:04:09;19;19;
79537;PMS5003;68989;52.032;5.152;2024-01-10T10:06:39;20;18;
79537;PMS5003;68989;52.032;5.152;2024-01-10T10:09:07;22;19;
79537;PMS5003;68989;52.032;5.152;2024-01-10T10:11:34;20;17;
79537;PMS5003;68989;52.032;5.152;2024-01-10T10:14:13;22;19;
79537;PMS5003;68989;52.032;5.152;2024-01-10T10:16:41;22;22;
79537;PMS5003;68989;52.032;5.152;2024-01-10T10:19:08;27;22;
79537;PMS5003;68989;52.032;5.152;2024-01-10T10:21:35;24;20;
79537;PMS5003;68989;52.032;5.152;2024-01-10T10:24:02;26;23;
79537;PMS5003;68989;52.032;5.152;2024-01-10T10:26:32;26;17;
79537;PMS5003;68989;52.032;5.152;2024-01-10T10:29:00;20;19;
79537;PMS5003;68989;52.032;5.152;2024-01-10T10:31:27;23;22;
79537;PMS5003;68989;52.032;5.152;2024-01-10T10:33:54;26;23;
79537;PMS5003;68989;52.032;5.152;2024-01-10T10:36:21;22;20;
79537;PMS5003;68989;52.032;5.152;2024-01-10T10:38:48;24;21;
79537;PMS5003;68989;52.032;5.152;2024-01-10T10:41:15;22;20;
79537;PMS5003;68989;52.032;5.152;2024-01-10T10:43:44;19;17;
79537;PMS5003;68989;52.032;5.152;2024-01-10T10:46:11;23;21;
79537;PMS5003;68989;52.032;5.152;2024-01-10T10:48:38;27;20;
79537;PMS5003;68989;52.032;5.152;2024-01-10T10:51:06;31;23;
79537;PMS5003;68989;52.032;5.152;2024-01-10T10:53:35;23;21;
79537;PMS5003;68989;52.032;5.152;2024-01-10T10:56:04;25;19;
79537;PMS5003;68989;52.032;5.152;2024-01-10T10:58:33;25;23;
79537;PMS5003;68989;52.032;5.152;2024-01-10T11:01:05;19;17;
79537;PMS5003;68989;52.032;5.152;2024-01-10T11:03:34;19;19;
79537;PMS5003;68989;52.032;5.152;2024-01-10T11:06:02;25;21;
79537;PMS5003;68989;52.032;5.152;2024-01-10T11:08:32;21;18;
79537;PMS5003;68989;52.032;5.152;2024-01-10T11:11:03;25;23;
79537;PMS5003;68989;52.032;5.152;2024-01-10T11:13:42;21;18;
79537;PMS5003;68989;52.032;5.152;2024-01-10T11:16:29;25;25;
79537;PMS5003;68989;52.032;5.152;2024-01-10T11:19:24;22;22;
79537;PMS5003;68989;52.032;5.152;2024-01-10T11:22:10;24;24;
79537;PMS5003;68989;52.032;5.152;2024-01-10T11:24:48;24;21;
79537;PMS5003;68989;52.032;5.152;2024-01-10T11:27:16;21;20;
79537;PMS5003;68989;52.032;5.152;2024-01-10T11:29:45;34;28;
79537;PMS5003;68989;52.032;5.152;2024-01-10T11:32:13;29;26;
79537;PMS5003;68989;52.032;5.152;2024-01-10T11:34:49;32;25;
79537;PMS5003;68989;52.032;5.152;2024-01-10T11:37:20;25;21;
79537;PMS5003;68989;52.032;5.152;2024-01-10T11:39:47;28;26;
79537;PMS5003;68989;52.032;5.152;2024-01-10T11:42:21;26;24;
79537;PMS5003;68989;52.032;5.152;2024-01-10T11:44:49;21;20;
79537;PMS5003;68989;52.032;5.152;2024-01-10T11:47:17;25;22;
79537;PMS5003;68989;52.032;5.152;2024-01-10T11:49:53;24;22;
79537;PMS5003;68989;52.032;5.152;2024-01-10T11:52:22;30;20;
79537;PMS5003;68989;52.032;5.152;2024-01-10T11:54:50;29;24;
79537;PMS5003;68989;52.032;5.152;2024-01-10T11:57:20;25;22;
79537;PMS5003;68989;52.032;5.152;2024-01-10T11:59:50;26;22;
79537;PMS5003;68989;52.032;5.152;2024-01-10T12:02:19;24;21;
79537;PMS5003;68989;52.032;5.152;2024-01-10T12:04:48;26;26;
79537;PMS5003;68989;52.032;5.152;2024-01-10T12:07:15;33;24;
79537;PMS5003;68989;52.032;5.152;2024-01-10T12:09:43;25;20;
79537;PMS5003;68989;52.032;5.152;2024-01-10T12:12:12;25;20;
79537;PMS5003;68989;52.032;5.152;2024-01-10T12:14:39;21;19;
79537;PMS5003;68989;52.032;5.152;2024-01-10T12:17:07;23;18;
79537;PMS5003;68989;52.032;5.152;2024-01-10T12:19:34;22;21;
79537;PMS5003;68989;52.032;5.152;2024-01-10T12:22:02;18;18;
79537;PMS5003;68989;52.032;5.152;2024-01-10T12:24:29;22;22;
79537;PMS5003;68989;52.032;5.152;2024-01-10T12:26:57;26;20;
79537;PMS5003;68989;52.032;5.152;2024-01-10T12:29:24;25;25;
79537;PMS5003;68989;52.032;5.152;2024-01-10T12:31:52;22;22;
79537;PMS5003;68989;52.032;5.152;2024-01-10T12:34:19;25;21;
79537;PMS5003;68989;52.032;5.152;2024-01-10T12:36:47;25;21;
79537;PMS5003;68989;52.032;5.152;2024-01-10T12:39:14;23;22;
79537;PMS5003;68989;52.032;5.152;2024-01-10T12:41:41;22;21;
79537;PMS5003;68989;52.032;5.152;2024-01-10T12:44:10;19;19;
79537;PMS5003;68989;52.032;5.152;2024-01-10T12:46:37;22;21;
79537;PMS5003;68989;52.032;5.152;2024-01-10T12:49:16;26;25;
79537;PMS5003;68989;52.032;5.152;2024-01-10T12:51:43;31;30;
79537;PMS5003;68989;52.032;5.152;2024-01-10T12:54:10;22;20;
79537;PMS5003;68989;52.032;5.152;2024-01-10T12:56:37;22;20;
79537;PMS5003;68989;52.032;5.152;2024-01-10T12:59:04;18;18;
79537;PMS5003;68989;52.032;5.152;2024-01-10T13:01:31;23;21;
79537;PMS5003;68989;52.032;5.152;2024-01-10T13:03:58;22;22;
79537;PMS5003;68989;52.032;5.152;2024-01-10T13:06:25;26;22;
79537;PMS5003;68989;52.032;5.152;2024-01-10T13:08:57;28;24;
79537;PMS5003;68989;52.032;5.152;2024-01-10T13:11:24;30;27;
79537;PMS5003;68989;52.032;5.152;2024-01-10T13:13:51;26;24;
79537;PMS5003;68989;52.032;5.152;2024-01-10T13:16:18;26;26;
79537;PMS5003;68989;52.032;5.152;2024-01-10T13:18:45;26;24;
79537;PMS5003;68989;52.032;5.152;2024-01-10T13:21:12;28;19;
79537;PMS5003;68989;52.032;5.152;2024-01-10T13:23:38;23;22;
79537;PMS5003;68989;52.032;5.152;2024-01-10T13:26:06;26;24;
79537;PMS5003;68989;52.032;5.152;2024-01-10T13:28:32;24;19;
79537;PMS5003;68989;52.032;5.152;2024-01-10T13:31:00;26;23;
79537;PMS5003;68989;52.032;5.152;2024-01-10T13:33:27;26;24;
79537;PMS5003;68989;52.032;5.152;2024-01-10T13:35:53;33;27;
79537;PMS5003;68989;52.032;5.152;2024-01-10T13:38:21;27;24;
79537;PMS5003;68989;52.032;5.152;2024-01-10T13:40:48;23;22;
79537;PMS5003;68989;52.032;5.152;2024-01-10T13:43:15;27;24;
79537;PMS5003;68989;52.032;5.152;2024-01-10T13:45:42;27;18;
79537;PMS5003;68989;52.032;5.152;2024-01-10T13:48:10;24;23;
79537;PMS5003;68989;52.032;5.152;2024-01-10T13:50:37;32;23;
79537;PMS5003;68989;52.032;5.152;2024-01-10T13:53:04;28;26;
79537;PMS5003;68989;52.032;5.152;2024-01-10T13:55:31;28;24;
79537;PMS5003;68989;52.032;5.152;2024-01-10T13:57:58;20;20;
79537;PMS5003;68989;52.032;5.152;2024-01-10T14:00:25;20;20;
79537;PMS5003;68989;52.032;5.152;2024-01-10T14:02:52;27;22;
79537;PMS5003;68989;52.032;5.152;2024-01-10T14:05:20;22;19;
79537;PMS5003;68989;52.032;5.152;2024-01-10T14:07:47;24;19;
79537;PMS5003;68989;52.032;5.152;2024-01-10T14:10:14;27;23;
79537;PMS5003;68989;52.032;5.152;2024-01-10T14:12:41;19;19;
79537;PMS5003;68989;52.032;5.152;2024-01-10T14:15:09;26;24;
79537;PMS5003;68989;52.032;5.152;2024-01-10T14:17:36;31;27;
79537;PMS5003;68989;52.032;5.152;2024-01-10T14:20:03;23;20;
79537;PMS5003;68989;52.032;5.152;2024-01-10T14:22:32;25;25;
79537;PMS5003;68989;52.032;5.152;2024-01-10T14:24:59;24;24;
79537;PMS5003;68989;52.032;5.152;2024-01-10T14:27:26;36;25;
79537;PMS5003;68989;52.032;5.152;2024-01-10T14:29:53;31;27;
79537;PMS5003;68989;52.032;5.152;2024-01-10T14:32:21;26;22;
79537;PMS5003;68989;52.032;5.152;2024-01-10T14:34:48;20;18;
79537;PMS5003;68989;52.032;5.152;2024-01-10T14:37:15;24;21;
79537;PMS5003;68989;52.032;5.152;2024-01-10T14:39:42;19;19;
79537;PMS5003;68989;52.032;5.152;2024-01-10T14:42:09;27;24;
79537;PMS5003;68989;52.032;5.152;2024-01-10T14:44:36;20;18;
79537;PMS5003;68989;52.032;5.152;2024-01-10T14:47:03;27;27;
79537;PMS5003;68989;52.032;5.152;2024-01-10T14:49:31;29;24;
79537;PMS5003;68989;52.032;5.152;2024-01-10T14:51:58;28;25;
79537;PMS5003;68989;52.032;5.152;2024-01-10T14:54:25;32;26;
79537;PMS5003;68989;52.032;5.152;2024-01-10T14:56:53;27;25;
79537;PMS5003;68989;52.032;5.152;2024-01-10T14:59:19;24;21;
79537;PMS5003;68989;52.032;5.152;2024-01-10T15:01:47;24;21;
79537;PMS5003;68989;52.032;5.152;2024-01-10T15:04:14;33;32;
79537;PMS5003;68989;52.032;5.152;2024-01-10T15:06:43;37;29;
79537;PMS5003;68989;52.032;5.152;2024-01-10T15:09:11;29;27;
79537;PMS5003;68989;52.032;5.152;2024-01-10T15:11:38;36;29;
79537;PMS5003;68989;52.032;5.152;2024-01-10T15:14:06;31;27;
79537;PMS5003;68989;52.032;5.152;2024-01-10T15:16:33;32;24;
79537;PMS5003;68989;52.032;5.152;2024-01-10T15:19:00;29;24;
79537;PMS5003;68989;52.032;5.152;2024-01-10T15:21:27;32;27;
79537;PMS5003;68989;52.032;5.152;2024-01-10T15:23:54;28;24;
79537;PMS5003;68989;52.032;5.152;2024-01-10T15:26:22;25;25;
79537;PMS5003;68989;52.032;5.152;2024-01-10T15:28:49;21;21;
79537;PMS5003;68989;52.032;5.152;2024-01-10T15:31:16;23;21;
79537;PMS5003;68989;52.032;5.152;2024-01-10T15:33:44;28;27;
79537;PMS5003;68989;52.032;5.152;2024-01-10T15:36:11;27;25;
79537;PMS5003;68989;52.032;5.152;2024-01-10T15:38:39;23;23;
79537;PMS5003;68989;52.032;5.152;2024-01-10T15:41:07;31;28;
79537;PMS5003;68989;52.032;5.152;2024-01-10T15:43:34;25;24;
79537;PMS5003;68989;52.032;5.152;2024-01-10T15:46:02;31;28;
79537;PMS5003;68989;52.032;5.152;2024-01-10T15:48:30;25;22;
79537;PMS5003;68989;52.032;5.152;2024-01-10T15:50:57;32;28;
79537;PMS5003;68989;52.032;5.152;2024-01-10T15:53:24;35;29;
79537;PMS5003;68989;52.032;5.152;2024-01-10T15:55:51;26;24;
79537;PMS5003;68989;52.032;5.152;2024-01-10T15:58:18;30;25;
79537;PMS5003;68989;52.032;5.152;2024-01-10T16:00:46;31;24;
79537;PMS5003;68989;52.032;5.152;2024-01-10T16:03:13;28;24;
79537;PMS5003;68989;52.032;5.152;2024-01-10T16:05:40;28;24;
79537;PMS5003;68989;52.032;5.152;2024-01-10T16:08:07;31;28;
79537;PMS5003;68989;52.032;5.152;2024-01-10T16:10:35;29;28;
79537;PMS5003;68989;52.032;5.152;2024-01-10T16:13:02;28;26;
79537;PMS5003;68989;52.032;5.152;2024-01-10T16:15:29;30;24;
79537;PMS5003;68989;52.032;5.152;2024-01-10T16:17:56;36;31;
79537;PMS5003;68989;52.032;5.152;2024-01-10T16:20:23;27;27;
79537;PMS5003;68989;52.032;5.152;2024-01-10T16:22:50;33;32;